Time;durP1;ratioP1;P1;durP2;ratioP2;P2;SDS_P1;SDS_P2;PMS_P1;PMS_P2;Temp;Humidity;BMP_temperature;BMP_pressure;BME280_temperature;BME280_humidity;BME280_pressure;Samples;Min_cycle;Max_cycle;Signal;HPM_P1;HPM_P2
2022/07/27 00:00:33;;;;;;;4.88;1.33;;;14.60;99.90;;;;;;5053394;28;20041;-69
2022/07/27 00:02:59;;;;;;;6.60;1.70;;;14.70;99.90;;;;;;5053976;28;20410;-70
2022/07/27 00:05:24;;;;;;;4.72;1.45;;;14.70;99.90;;;;;;5053933;28;20037;-70
2022/07/27 00:07:50;;;;;;;3.58;1.50;;;14.70;99.90;;;;;;5052435;28;20045;-70
2022/07/27 00:10:16;;;;;;;4.53;1.45;;;14.70;99.90;;;;;;5053393;28;20068;-70
2022/07/27 00:12:42;;;;;;;4.20;1.25;;;14.70;99.90;;;;;;5053607;28;20029;-70
2022/07/27 00:15:08;;;;;;;3.30;1.30;;;14.70;99.90;;;;;;5053367;28;20032;-70
2022/07/27 00:17:34;;;;;;;3.05;1.20;;;14.60;99.90;;;;;;5053574;28;20037;-73
2022/07/27 00:20:00;;;;;;;6.85;1.67;;;14.70;99.90;;;;;;5052074;28;20059;-73
2022/07/27 00:22:26;;;;;;;4.57;1.52;;;14.70;99.90;;;;;;5053555;28;20497;-71
2022/07/27 00:24:51;;;;;;;4.38;1.45;;;14.60;99.90;;;;;;5053451;28;20041;-71
2022/07/27 00:27:17;;;;;;;5.25;1.45;;;14.70;99.90;;;;;;5053238;28;20044;-72
2022/07/27 00:29:44;;;;;;;4.50;1.23;;;14.70;99.90;;;;;;5052816;28;20115;-72
2022/07/27 00:32:10;;;;;;;3.90;1.83;;;14.70;99.90;;;;;;5053428;28;20107;-72
2022/07/27 00:34:35;;;;;;;5.32;1.20;;;14.70;99.90;;;;;;5053308;28;20451;-71
2022/07/27 00:37:01;;;;;;;7.25;1.40;;;14.60;99.90;;;;;;5053137;28;20036;-71
2022/07/27 00:39:26;;;;;;;3.10;1.00;;;14.60;99.90;;;;;;5051489;28;20090;-73
2022/07/27 00:41:52;;;;;;;7.00;1.58;;;14.60;99.90;;;;;;5051677;28;20053;-72
2022/07/27 00:44:25;;;;;;;5.50;1.17;;;14.70;99.90;;;;;;5051588;28;20041;-71
2022/07/27 00:46:51;;;;;;;4.05;2.15;;;14.70;99.90;;;;;;5052807;28;20051;-72
2022/07/27 00:49:17;;;;;;;3.67;1.20;;;14.60;99.90;;;;;;5052062;28;20033;-72
2022/07/27 00:51:44;;;;;;;6.13;1.73;;;14.70;99.90;;;;;;5034900;28;20526;-71
2022/07/27 00:54:10;;;;;;;3.33;1.33;;;14.70;99.90;;;;;;5052818;28;20033;-71
2022/07/27 00:56:36;;;;;;;4.25;1.13;;;14.60;99.90;;;;;;5051299;28;20045;-72
2022/07/27 00:59:03;;;;;;;4.75;1.40;;;14.70;99.90;;;;;;5051568;28;20047;-72
2022/07/27 01:01:28;;;;;;;3.80;1.13;;;14.70;99.90;;;;;;5034484;28;20045;-72
2022/07/27 01:03:54;;;;;;;4.05;1.25;;;14.60;99.90;;;;;;5034986;28;20048;-71
2022/07/27 01:06:20;;;;;;;4.55;1.48;;;14.60;99.90;;;;;;5051253;28;20388;-72
2022/07/27 01:08:45;;;;;;;3.55;1.40;;;14.60;99.90;;;;;;5052555;28;20150;-72
2022/07/27 01:11:11;;;;;;;5.57;1.33;;;14.50;99.90;;;;;;5052017;28;20487;-72
2022/07/27 01:13:37;;;;;;;9.00;1.67;;;14.50;99.90;;;;;;5051034;28;20059;-72
2022/07/27 01:16:05;;;;;;;6.18;1.58;;;14.50;99.90;;;;;;5051022;28;20048;-72
2022/07/27 01:18:33;;;;;;;3.53;1.27;;;14.40;99.90;;;;;;5051004;28;20045;-72
2022/07/27 01:21:01;;;;;;;8.63;1.35;;;14.40;99.90;;;;;;5050634;28;20128;-72
2022/07/27 01:23:28;;;;;;;3.17;1.23;;;14.40;99.90;;;;;;5050935;28;20123;-72
2022/07/27 01:25:54;;;;;;;6.75;1.40;;;14.40;99.90;;;;;;5051994;28;20040;-73
2022/07/27 01:28:20;;;;;;;5.22;1.95;;;14.20;99.90;;;;;;5052327;28;20067;-72
2022/07/27 01:30:46;;;;;;;5.57;1.25;;;14.30;99.90;;;;;;5051865;28;20049;-72
2022/07/27 01:33:11;;;;;;;3.72;1.42;;;14.10;99.90;;;;;;5050799;28;20398;-71
2022/07/27 01:35:38;;;;;;;5.13;1.42;;;14.20;99.90;;;;;;5052210;28;20095;-71
2022/07/27 01:38:05;;;;;;;2.65;1.10;;;14.10;99.90;;;;;;5051949;28;20044;-72
2022/07/27 01:40:32;;;;;;;6.40;1.27;;;14.00;99.90;;;;;;5051614;28;20112;-71
2022/07/27 01:42:58;;;;;;;5.35;1.60;;;14.10;99.90;;;;;;5052074;28;20106;-72
2022/07/27 01:45:24;;;;;;;7.57;1.38;;;14.00;99.90;;;;;;5052002;28;20040;-72
2022/07/27 01:47:49;;;;;;;4.70;1.75;;;14.00;99.90;;;;;;5050419;28;20120;-71
2022/07/27 01:50:15;;;;;;;5.97;1.33;;;13.90;99.90;;;;;;5050140;28;20045;-71
2022/07/27 01:52:40;;;;;;;5.03;1.45;;;13.90;99.90;;;;;;5050455;28;20048;-71
2022/07/27 01:55:08;;;;;;;5.15;1.42;;;13.90;99.90;;;;;;5050380;28;20051;-71
2022/07/27 01:57:34;;;;;;;4.05;1.60;;;14.00;99.90;;;;;;5050317;28;20045;-72
2022/07/27 02:00:00;;;;;;;4.28;1.27;;;14.00;99.90;;;;;;5050879;28;20418;-71
2022/07/27 02:02:25;;;;;;;2.85;1.40;;;13.90;99.90;;;;;;5051511;28;20043;-71
2022/07/27 02:04:51;;;;;;;4.90;1.30;;;13.90;99.90;;;;;;5051555;28;20449;-71
2022/07/27 02:07:16;;;;;;;6.80;1.95;;;13.80;99.90;;;;;;5051505;28;20033;-72
2022/07/27 02:09:44;;;;;;;2.85;1.33;;;13.80;99.90;;;;;;5051112;28;20029;-71
2022/07/27 02:14:54;;;;;;;5.60;1.38;;;13.80;99.90;;;;;;5050313;28;20048;-71
2022/07/27 02:17:19;;;;;;;7.15;1.65;;;13.70;99.90;;;;;;5051570;28;20037;-71
2022/07/27 02:19:45;;;;;;;4.22;1.85;;;13.70;99.90;;;;;;5050181;28;20040;-72
2022/07/27 02:22:10;;;;;;;5.20;1.88;;;13.70;99.90;;;;;;5051389;28;20033;-72
2022/07/27 02:24:36;;;;;;;7.03;1.50;;;13.70;99.90;;;;;;5050195;28;20551;-71
2022/07/27 02:27:02;;;;;;;6.43;1.25;;;13.80;99.90;;;;;;5052387;28;20037;-71
2022/07/27 02:29:29;;;;;;;6.60;1.70;;;13.70;99.90;;;;;;5062792;28;20064;-72
2022/07/27 02:31:55;;;;;;;3.90;1.30;;;13.80;99.90;;;;;;5062877;28;20469;-73
2022/07/27 02:34:21;;;;;;;4.05;1.30;;;13.80;99.90;;;;;;5071424;28;20035;-72
2022/07/27 02:36:46;;;;;;;9.32;1.48;;;13.80;99.90;;;;;;5071181;28;20036;-72
2022/07/27 02:39:12;;;;;;;6.45;1.52;;;13.80;99.90;;;;;;5071272;28;20120;-72
2022/07/27 02:41:38;;;;;;;5.45;1.58;;;13.80;99.90;;;;;;5070227;28;20460;-72
2022/07/27 02:44:03;;;;;;;5.07;1.42;;;13.90;99.90;;;;;;5069994;28;20040;-72
2022/07/27 02:46:29;;;;;;;3.90;1.20;;;13.80;99.90;;;;;;5071215;28;20032;-72
2022/07/27 02:48:54;;;;;;;6.68;1.42;;;13.80;99.90;;;;;;5071336;28;20044;-71
2022/07/27 02:51:20;;;;;;;5.70;1.55;;;13.80;99.90;;;;;;5070809;28;20052;-71
2022/07/27 02:53:46;;;;;;;5.13;1.52;;;13.80;99.90;;;;;;5069960;28;20049;-72
2022/07/27 02:56:11;;;;;;;4.00;1.40;;;13.80;99.90;;;;;;5071208;28;20036;-73
2022/07/27 02:58:37;;;;;;;5.60;1.30;;;13.60;99.90;;;;;;5071137;28;20037;-71
2022/07/27 03:01:04;;;;;;;5.88;1.50;;;13.60;99.90;;;;;;5067438;28;20120;-71
2022/07/27 03:03:30;;;;;;;4.65;1.40;;;13.60;99.90;;;;;;5065084;28;20040;-72
2022/07/27 03:05:55;;;;;;;5.68;2.20;;;13.50;99.90;;;;;;5070936;28;20055;-72
2022/07/27 03:08:21;;;;;;;5.32;1.83;;;13.60;99.90;;;;;;5069740;28;20047;-72
2022/07/27 03:10:47;;;;;;;3.67;1.80;;;13.60;99.90;;;;;;5070916;28;20390;-72
2022/07/27 03:13:13;;;;;;;3.25;1.73;;;13.60;99.90;;;;;;5072922;28;20127;-71
2022/07/27 03:15:38;;;;;;;3.13;1.30;;;13.50;99.90;;;;;;5075243;28;20044;-71
2022/07/27 03:18:04;;;;;;;6.10;1.60;;;13.50;99.90;;;;;;5074546;28;20036;-70
2022/07/27 03:20:30;;;;;;;12.15;2.70;;;13.60;99.90;;;;;;5074272;28;20040;-70
2022/07/27 03:22:55;;;;;;;8.27;1.70;;;13.50;99.90;;;;;;5073516;28;20051;-70
2022/07/27 03:25:21;;;;;;;9.25;1.98;;;13.40;99.90;;;;;;5075193;28;20325;-70
2022/07/27 03:27:54;;;;;;;5.65;1.92;;;13.50;99.90;;;;;;5074167;28;20565;-70
2022/07/27 03:30:20;;;;;;;8.93;2.38;;;13.40;99.90;;;;;;5073659;28;20036;-70
2022/07/27 03:32:47;;;;;;;5.72;1.90;;;13.40;99.90;;;;;;5074591;28;20048;-70
2022/07/27 03:35:14;;;;;;;6.93;3.13;;;13.40;99.90;;;;;;5074181;28;20410;-71
2022/07/27 03:37:39;;;;;;;6.43;2.00;;;13.40;99.90;;;;;;5069935;28;20040;-70
2022/07/27 03:40:06;;;;;;;4.43;1.48;;;13.40;99.90;;;;;;5064530;28;20067;-70
2022/07/27 03:42:31;;;;;;;8.10;1.60;;;13.50;99.90;;;;;;5072945;28;20083;-71
2022/07/27 03:44:57;;;;;;;3.75;1.80;;;13.50;99.90;;;;;;5056161;28;20067;-70
2022/07/27 03:47:23;;;;;;;8.50;1.98;;;13.50;99.90;;;;;;5073867;28;20045;-71
2022/07/27 03:49:51;;;;;;;6.22;1.85;;;13.50;99.90;;;;;;5073528;28;20158;-70
2022/07/27 03:52:17;;;;;;;5.03;2.03;;;13.60;99.90;;;;;;5072891;28;20036;-70
2022/07/27 03:54:43;;;;;;;5.93;2.10;;;13.50;99.90;;;;;;5072563;28;20115;-70
2022/07/27 03:57:08;;;;;;;6.93;1.80;;;13.50;99.90;;;;;;5073802;28;20170;-70
2022/07/27 03:59:34;;;;;;;5.50;1.70;;;13.60;99.90;;;;;;5073777;28;20097;-70
2022/07/27 04:01:59;;;;;;;5.65;1.77;;;13.60;99.90;;;;;;5072531;28;20044;-71
2022/07/27 04:04:25;;;;;;;6.38;1.58;;;13.60;99.90;;;;;;5073640;28;20037;-70
2022/07/27 04:06:50;;;;;;;3.83;1.48;;;13.60;99.90;;;;;;5073859;28;20040;-70
2022/07/27 04:09:16;;;;;;;8.15;2.00;;;13.60;99.90;;;;;;5073931;28;20036;-70
2022/07/27 04:11:42;;;;;;;5.68;1.52;;;13.70;99.90;;;;;;5072240;28;20076;-70
2022/07/27 04:14:08;;;;;;;5.53;1.85;;;13.70;99.90;;;;;;5072371;28;20044;-70
2022/07/27 04:16:33;;;;;;;6.43;1.85;;;13.80;99.90;;;;;;5073483;28;20036;-70
2022/07/27 04:18:59;;;;;;;6.40;1.75;;;13.80;99.90;;;;;;5073320;28;20450;-71
2022/07/27 04:21:24;;;;;;;5.57;1.48;;;13.80;99.90;;;;;;5073351;28;20055;-70
2022/07/27 04:23:50;;;;;;;4.00;2.10;;;13.80;99.90;;;;;;5072435;28;20040;-70
2022/07/27 04:26:16;;;;;;;5.93;2.03;;;13.80;99.90;;;;;;5071985;28;20041;-70
2022/07/27 04:28:41;;;;;;;5.32;1.83;;;13.80;99.90;;;;;;5073267;28;20071;-71
2022/07/27 04:31:07;;;;;;;4.03;1.70;;;13.90;99.90;;;;;;5072671;28;20119;-70
2022/07/27 04:33:32;;;;;;;4.88;2.03;;;14.00;99.90;;;;;;5073055;28;20039;-70
2022/07/27 04:35:58;;;;;;;5.57;2.13;;;14.00;99.90;;;;;;5073068;28;20036;-70
2022/07/27 04:38:24;;;;;;;7.30;2.00;;;14.00;99.90;;;;;;5071961;28;20547;-70
2022/07/27 04:40:49;;;;;;;3.05;1.77;;;14.00;99.90;;;;;;5072872;28;20399;-71
2022/07/27 04:43:15;;;;;;;4.25;1.92;;;13.90;99.90;;;;;;5071836;28;20414;-70
2022/07/27 04:45:40;;;;;;;5.45;2.20;;;13.90;99.90;;;;;;5072872;28;20401;-71
2022/07/27 04:48:08;;;;;;;4.22;1.98;;;13.90;99.90;;;;;;5072595;28;20055;-70
2022/07/27 04:50:43;;;;;;;7.00;2.28;;;14.00;99.90;;;;;;5072623;28;20052;-70
2022/07/27 04:53:10;;;;;;;4.68;2.20;;;13.90;99.90;;;;;;5072875;28;20040;-70
2022/07/27 04:55:40;;;;;;;7.47;2.00;;;14.00;99.90;;;;;;5071479;28;20115;-70
2022/07/27 04:58:06;;;;;;;9.05;2.20;;;14.00;99.90;;;;;;5071732;28;20051;-70
2022/07/27 05:00:31;;;;;;;4.30;2.20;;;14.10;99.90;;;;;;5070971;28;20041;-70
2022/07/27 05:02:57;;;;;;;8.30;2.92;;;14.10;99.90;;;;;;5072772;28;20074;-70
2022/07/27 05:05:23;;;;;;;7.30;2.30;;;14.10;99.90;;;;;;5072715;28;20050;-70
2022/07/27 05:07:49;;;;;;;9.20;2.40;;;14.10;99.90;;;;;;5072536;28;20402;-71
2022/07/27 05:10:14;;;;;;;14.02;2.63;;;14.20;99.90;;;;;;5070701;28;20043;-70
2022/07/27 05:12:40;;;;;;;5.57;2.20;;;14.20;99.90;;;;;;5071502;28;20402;-71
2022/07/27 05:15:06;;;;;;;7.75;2.50;;;14.10;99.90;;;;;;5072273;28;20041;-70
2022/07/27 05:17:33;;;;;;;6.93;2.22;;;14.20;99.90;;;;;;5072258;28;20062;-70
2022/07/27 05:19:59;;;;;;;11.38;3.03;;;14.10;99.90;;;;;;5072102;28;20108;-70
2022/07/27 05:22:24;;;;;;;10.23;2.00;;;14.10;99.90;;;;;;5072235;28;20127;-71
2022/07/27 05:24:50;;;;;;;9.23;2.53;;;14.10;99.90;;;;;;5071115;28;20462;-70
2022/07/27 05:27:15;;;;;;;9.50;2.47;;;14.00;99.90;;;;;;5054421;28;20127;-70
2022/07/27 05:29:41;;;;;;;7.25;2.75;;;14.00;99.90;;;;;;5054072;28;20119;-70
2022/07/27 05:32:07;;;;;;;4.70;1.85;;;14.10;99.90;;;;;;5071988;28;20080;-70
2022/07/27 05:34:32;;;;;;;6.28;2.30;;;14.30;99.90;;;;;;5071991;28;20636;-70
2022/07/27 05:36:58;;;;;;;7.28;2.55;;;14.70;99.90;;;;;;5071914;28;20051;-70
2022/07/27 05:39:23;;;;;;;9.77;2.47;;;14.70;99.90;;;;;;5071722;28;20032;-70
2022/07/27 05:41:49;;;;;;;7.80;2.30;;;14.70;99.90;;;;;;5070894;28;20050;-71
2022/07/27 05:44:15;;;;;;;3.72;2.33;;;14.90;99.90;;;;;;5070851;28;20080;-70
2022/07/27 05:46:40;;;;;;;7.20;1.98;;;14.80;99.90;;;;;;5094230;22;20651;-73
2022/07/27 05:49:06;;;;;;;9.32;2.22;;;14.80;99.90;;;;;;5071426;28;20033;-74
2022/07/27 05:51:31;;;;;;;6.07;2.15;;;14.80;99.90;;;;;;5069413;28;20041;-74
2022/07/27 05:53:58;;;;;;;12.07;2.60;;;14.80;99.90;;;;;;5071835;28;20035;-74
2022/07/27 05:56:23;;;;;;;8.63;2.30;;;14.60;99.90;;;;;;5070340;28;20543;-74
2022/07/27 05:58:49;;;;;;;8.65;3.13;;;14.70;99.90;;;;;;5070633;28;20037;-73
2022/07/27 06:01:15;;;;;;;8.48;2.90;;;14.60;99.90;;;;;;5071579;28;20045;-74
2022/07/27 06:03:40;;;;;;;8.65;2.60;;;14.60;99.90;;;;;;5071608;28;20490;-74
2022/07/27 06:08:50;;;;;;;10.48;2.47;;;14.50;99.90;;;;;;5071605;28;20053;-74
2022/07/27 06:11:16;;;;;;;6.65;2.45;;;14.50;99.90;;;;;;5069964;28;20119;-73
2022/07/27 06:13:42;;;;;;;7.78;2.47;;;14.60;99.90;;;;;;5071528;28;20037;-74
2022/07/27 06:16:08;;;;;;;6.75;2.35;;;14.50;99.90;;;;;;5071520;28;20040;-74
2022/07/27 06:18:33;;;;;;;8.07;2.80;;;14.50;99.90;;;;;;5071534;28;20033;-74
2022/07/27 06:21:00;;;;;;;9.50;2.33;;;14.60;99.90;;;;;;5071108;28;20094;-74
2022/07/27 06:23:26;;;;;;;7.10;1.80;;;14.50;99.90;;;;;;5071501;28;20044;-73
2022/07/27 06:25:52;;;;;;;5.43;1.80;;;14.60;99.90;;;;;;5070878;28;20452;-74
2022/07/27 06:28:18;;;;;;;8.07;3.15;;;14.70;99.90;;;;;;5060078;28;20044;-75
2022/07/27 06:30:44;;;;;;;6.85;1.95;;;15.10;99.90;;;;;;5071145;28;20099;-74
2022/07/27 06:33:10;;;;;;;5.90;1.90;;;15.60;99.90;;;;;;5071406;28;20355;-73
2022/07/27 06:35:36;;;;;;;5.63;1.88;;;16.20;99.90;;;;;;5065717;28;20032;-73
2022/07/27 06:38:01;;;;;;;7.47;2.10;;;16.40;99.90;;;;;;5063708;28;20032;-73
2022/07/27 06:40:27;;;;;;;3.85;1.70;;;16.50;99.90;;;;;;5070850;28;20519;-73
2022/07/27 06:42:53;;;;;;;5.68;1.80;;;16.50;99.90;;;;;;5071470;28;20041;-73
2022/07/27 06:45:20;;;;;;;3.80;1.27;;;16.80;99.90;;;;;;5071467;28;20409;-72
2022/07/27 06:47:47;;;;;;;6.95;1.40;;;16.90;99.90;;;;;;5073564;28;20631;-72
2022/07/27 06:50:13;;;;;;;7.53;1.50;;;17.10;99.90;;;;;;5074695;28;20414;-72
2022/07/27 06:52:38;;;;;;;5.97;1.60;;;17.20;99.90;;;;;;5074119;28;20052;-73
2022/07/27 06:55:05;;;;;;;6.38;1.50;;;17.70;99.90;;;;;;5073699;28;20044;-73
2022/07/27 06:57:30;;;;;;;9.57;2.00;;;17.80;99.90;;;;;;5074449;28;20047;-72
2022/07/27 06:59:56;;;;;;;9.13;1.75;;;18.20;99.90;;;;;;5071898;28;20036;-72
2022/07/27 07:02:21;;;;;;;6.45;1.50;;;18.60;99.90;;;;;;5074956;28;20044;-72
2022/07/27 07:04:47;;;;;;;6.00;1.77;;;18.70;99.90;;;;;;5074693;28;20115;-74
2022/07/27 07:07:13;;;;;;;6.03;2.72;;;19.00;99.90;;;;;;5068538;28;20498;-72
2022/07/27 07:09:38;;;;;;;7.68;1.60;;;19.00;99.90;;;;;;5054801;28;20550;-72
2022/07/27 07:12:04;;;;;;;3.25;0.93;;;19.40;99.90;;;;;;5054713;28;20085;-72
2022/07/27 07:14:30;;;;;;;5.95;1.60;;;19.50;99.90;;;;;;5054480;28;20395;-72
2022/07/27 07:16:55;;;;;;;6.32;1.40;;;19.60;99.90;;;;;;5054635;28;20087;-72
2022/07/27 07:19:21;;;;;;;7.25;1.75;;;19.70;99.90;;;;;;5054247;28;20455;-74
2022/07/27 07:21:47;;;;;;;7.13;1.60;;;19.80;99.90;;;;;;5054457;28;20451;-72
2022/07/27 07:24:12;;;;;;;6.63;1.85;;;20.10;99.90;;;;;;5056805;28;20036;-72
2022/07/27 07:26:38;;;;;;;8.20;1.90;;;20.40;99.90;;;;;;5062398;28;20040;-73
2022/07/27 07:29:05;;;;;;;5.40;1.00;;;20.50;99.60;;;;;;5064635;28;20095;-72
2022/07/27 07:31:31;;;;;;;3.50;1.23;;;20.80;98.90;;;;;;5063895;28;20033;-72
2022/07/27 07:34:00;;;;;;;5.45;1.33;;;20.80;98.10;;;;;;5062680;28;20072;-72
2022/07/27 07:36:25;;;;;;;7.53;1.23;;;20.80;97.00;;;;;;5062458;28;20036;-73
2022/07/27 07:38:52;;;;;;;4.03;1.17;;;20.80;96.20;;;;;;5071855;28;20051;-73
2022/07/27 07:41:17;;;;;;;7.38;1.70;;;21.20;96.40;;;;;;5062072;28;20093;-73
2022/07/27 07:43:43;;;;;;;7.20;1.23;;;21.00;96.60;;;;;;5059094;28;20529;-71
2022/07/27 07:46:08;;;;;;;4.78;1.42;;;20.70;95.80;;;;;;5036000;28;20072;-74
2022/07/27 07:48:34;;;;;;;6.28;1.60;;;20.20;95.40;;;;;;5053974;28;20043;-74
2022/07/27 07:51:00;;;;;;;3.40;1.17;;;19.80;95.70;;;;;;5053523;28;20087;-75
2022/07/27 07:53:26;;;;;;;4.32;1.20;;;19.30;96.30;;;;;;5056304;28;20083;-74
2022/07/27 07:55:52;;;;;;;7.28;1.77;;;18.70;96.60;;;;;;5059353;28;20041;-73
2022/07/27 07:58:19;;;;;;;8.07;1.83;;;18.00;97.40;;;;;;5053953;28;20037;-74
2022/07/27 08:00:44;;;;;;;6.18;1.33;;;17.70;99.40;;;;;;5053648;28;20044;-73
2022/07/27 08:03:10;;;;;;;4.13;1.23;;;17.30;99.90;;;;;;5052476;28;20032;-74
2022/07/27 08:05:36;;;;;;;5.28;1.25;;;17.20;99.90;;;;;;5053780;28;20072;-73
2022/07/27 08:08:02;;;;;;;4.85;1.50;;;17.20;99.90;;;;;;5052311;28;20048;-74
2022/07/27 08:10:28;;;;;;;10.77;3.33;;;17.00;99.90;;;;;;5052176;28;20044;-72
2022/07/27 08:12:55;;;;;;;4.82;1.67;;;17.20;99.90;;;;;;5053707;28;20067;-74
2022/07/27 08:15:21;;;;;;;4.07;1.25;;;17.20;99.90;;;;;;5052281;28;20494;-74
2022/07/27 08:17:47;;;;;;;7.57;1.80;;;17.00;99.90;;;;;;5052239;28;20033;-74
2022/07/27 08:20:14;;;;;;;5.45;1.20;;;17.10;99.90;;;;;;5053166;28;20383;-75
2022/07/27 08:22:40;;;;;;;3.63;1.10;;;17.20;99.90;;;;;;5055911;28;20037;-74
2022/07/27 08:25:07;;;;;;;6.03;1.27;;;17.10;99.90;;;;;;5062687;28;20045;-74
2022/07/27 08:27:33;;;;;;;3.55;1.17;;;17.20;99.90;;;;;;5060671;28;20158;-74
2022/07/27 08:29:58;;;;;;;2.80;1.23;;;17.20;99.90;;;;;;5067259;28;20068;-74
2022/07/27 08:32:24;;;;;;;5.75;1.38;;;17.30;99.90;;;;;;5054696;28;20037;-73
2022/07/27 08:34:50;;;;;;;6.72;1.60;;;17.40;99.90;;;;;;5062881;28;20033;-73
2022/07/27 08:37:16;;;;;;;8.80;1.35;;;17.40;99.90;;;;;;5045489;28;20125;-73
2022/07/27 08:39:42;;;;;;;3.42;1.15;;;17.50;99.90;;;;;;5059922;28;20112;-73
2022/07/27 08:42:09;;;;;;;5.22;1.10;;;17.50;99.90;;;;;;5070351;28;20044;-73
2022/07/27 08:44:39;;;;;;;5.10;1.20;;;17.70;99.90;;;;;;5067336;28;20052;-74
2022/07/27 08:47:04;;;;;;;5.03;1.35;;;17.80;99.90;;;;;;5052743;28;20063;-73
2022/07/27 08:49:31;;;;;;;3.78;1.08;;;18.00;99.90;;;;;;5052620;28;20040;-73
2022/07/27 08:51:57;;;;;;;4.82;1.50;;;18.00;99.90;;;;;;5052941;28;20048;-74
2022/07/27 08:54:24;;;;;;;13.30;2.42;;;17.90;99.40;;;;;;5052966;28;20047;-74
2022/07/27 08:56:50;;;;;;;4.82;1.65;;;17.70;98.70;;;;;;5051422;28;20049;-73
2022/07/27 08:59:15;;;;;;;6.70;1.50;;;17.70;98.80;;;;;;5052595;28;20091;-74
2022/07/27 09:01:41;;;;;;;5.47;1.58;;;17.60;97.90;;;;;;5052732;28;20517;-74
2022/07/27 09:04:07;;;;;;;6.40;1.33;;;17.70;98.10;;;;;;5052642;28;20039;-74
2022/07/27 09:06:41;;;;;;;4.90;1.50;;;17.70;98.00;;;;;;5052474;28;20073;-73
2022/07/27 09:09:07;;;;;;;8.13;1.40;;;17.90;97.40;;;;;;5052264;28;20119;-73
2022/07/27 09:11:36;;;;;;;3.72;1.33;;;18.20;97.70;;;;;;5050926;28;20450;-73
2022/07/27 09:14:03;;;;;;;4.10;1.08;;;18.40;97.50;;;;;;5052678;28;20155;-73
2022/07/27 09:16:30;;;;;;;3.55;1.20;;;18.60;96.70;;;;;;5052384;28;20047;-74
2022/07/27 09:19:04;;;;;;;4.65;0.93;;;18.70;96.20;;;;;;5052356;28;20078;-74
2022/07/27 09:21:30;;;;;;;4.65;1.80;;;18.70;95.80;;;;;;5052197;28;20048;-73
2022/07/27 09:24:06;;;;;;;6.53;1.25;;;18.70;95.20;;;;;;5052414;28;20082;-73
2022/07/27 09:26:33;;;;;;;7.13;1.25;;;18.70;92.90;;;;;;5052353;28;20037;-73
2022/07/27 09:29:10;;;;;;;3.85;0.90;;;18.90;93.30;;;;;;5052897;28;20045;-72
2022/07/27 09:31:47;;;;;;;14.85;1.80;;;18.90;92.60;;;;;;5059265;28;20052;-74
2022/07/27 09:34:25;;;;;;;4.00;0.90;;;18.90;92.30;;;;;;5069973;28;20037;-73
2022/07/27 09:36:53;;;;;;;5.28;0.98;;;18.90;92.30;;;;;;5055125;28;20033;-73
2022/07/27 09:39:20;;;;;;;7.82;1.67;;;18.70;91.60;;;;;;5062147;28;20116;-74
2022/07/27 09:42:01;;;;;;;8.43;3.30;;;18.90;91.40;;;;;;5063316;28;20045;-75
2022/07/27 09:44:40;;;;;;;5.10;1.23;;;18.90;90.80;;;;;;5067630;28;20551;-72
2022/07/27 09:47:25;;;;;;;3.25;1.15;;;19.40;92.10;;;;;;5045621;28;20040;-72
2022/07/27 09:49:51;;;;;;;6.00;1.33;;;19.40;91.80;;;;;;5061534;28;20485;-73
2022/07/27 09:52:25;;;;;;;4.63;1.17;;;19.40;91.00;;;;;;5067496;28;20497;-72
2022/07/27 09:54:50;;;;;;;2.42;0.80;;;19.60;91.20;;;;;;5071768;28;20525;-73
2022/07/27 09:57:17;;;;;;;3.20;0.70;;;19.40;86.50;;;;;;5071545;28;20037;-73
2022/07/27 09:59:43;;;;;;;5.85;1.30;;;19.50;86.60;;;;;;5069307;28;20040;-72
2022/07/27 10:02:12;;;;;;;2.30;0.70;;;19.60;86.00;;;;;;5061815;28;20069;-72
2022/07/27 10:04:38;;;;;;;3.70;0.80;;;19.40;84.00;;;;;;5059228;28;20078;-72
2022/07/27 10:07:03;;;;;;;2.95;0.70;;;19.40;83.30;;;;;;5061522;28;20123;-72
2022/07/27 10:09:30;;;;;;;3.72;1.08;;;19.60;82.70;;;;;;5061751;28;20201;-72
2022/07/27 10:11:56;;;;;;;4.47;0.60;;;19.60;80.30;;;;;;5064615;28;20066;-72
2022/07/27 10:14:22;;;;;;;4.10;1.02;;;19.70;79.50;;;;;;5065347;28;20394;-72
2022/07/27 10:16:49;;;;;;;3.05;0.80;;;19.70;77.30;;;;;;5053847;28;20078;-73
2022/07/27 10:19:20;;;;;;;4.72;1.10;;;19.70;74.50;;;;;;5051199;28;20033;-73
2022/07/27 10:21:47;;;;;;;4.30;0.80;;;19.80;75.20;;;;;;5052425;28;20049;-73
2022/07/27 10:24:27;;;;;;;9.13;1.30;;;19.70;75.10;;;;;;5055782;28;20068;-73
2022/07/27 10:26:53;;;;;;;2.25;1.05;;;19.70;74.50;;;;;;5037704;28;20063;-74
2022/07/27 10:29:20;;;;;;;2.85;0.90;;;19.70;76.00;;;;;;5055442;28;20045;-74
2022/07/27 10:31:52;;;;;;;2.55;0.50;;;19.90;75.10;;;;;;5054022;28;20045;-73
2022/07/27 10:34:33;;;;;;;2.53;0.60;;;19.80;75.10;;;;;;5055571;28;20045;-73
2022/07/27 10:37:11;;;;;;;3.53;0.73;;;20.10;75.60;;;;;;5054089;28;20067;-73
2022/07/27 10:39:42;;;;;;;3.55;0.70;;;19.80;73.50;;;;;;5055088;28;20033;-73
2022/07/27 10:42:23;;;;;;;2.17;0.52;;;19.70;72.80;;;;;;5053800;28;20124;-73
2022/07/27 10:45:01;;;;;;;5.10;0.98;;;19.70;73.80;;;;;;5055463;28;20066;-72
2022/07/27 10:47:27;;;;;;;2.25;0.60;;;19.60;75.30;;;;;;5053699;28;20049;-73
2022/07/27 10:50:16;;;;;;;3.40;0.85;;;19.60;76.70;;;;;;5055241;28;20112;-72
2022/07/27 10:52:50;;;;;;;4.93;0.90;;;19.40;73.60;;;;;;5067227;28;20040;-73
2022/07/27 10:55:30;;;;;;;3.00;0.75;;;19.40;74.10;;;;;;5075238;28;20078;-73
2022/07/27 10:57:55;;;;;;;2.53;1.23;;;19.50;77.20;;;;;;5074969;28;20105;-73
2022/07/27 11:00:50;;;;;;;3.45;0.80;;;19.30;74.80;;;;;;5074619;28;20501;-73
2022/07/27 11:03:29;;;;;;;3.97;1.10;;;19.40;75.10;;;;;;5074991;28;20040;-72
2022/07/27 11:05:55;;;;;;;2.28;0.73;;;19.10;72.50;;;;;;5073701;28;20047;-72
2022/07/27 11:08:33;;;;;;;4.05;0.57;;;19.00;74.00;;;;;;5073424;28;20506;-71
2022/07/27 11:11:00;;;;;;;4.82;0.80;;;19.20;77.50;;;;;;5074398;28;20043;-73
2022/07/27 11:13:27;;;;;;;4.93;0.93;;;19.20;76.70;;;;;;5074480;28;20044;-71
2022/07/27 11:15:55;;;;;;;4.15;0.98;;;19.40;76.40;;;;;;5074765;28;20036;-71
2022/07/27 11:18:28;;;;;;;3.13;0.68;;;19.30;77.00;;;;;;5074663;28;20047;-72
2022/07/27 11:21:16;;;;;;;0.95;0.40;;;19.20;77.90;;;;;;5074342;28;20036;-72
2022/07/27 11:23:43;;;;;;;3.40;0.80;;;19.00;73.60;;;;;;5074506;28;20040;-72
2022/07/27 11:26:09;;;;;;;1.77;0.68;;;18.90;74.20;;;;;;5074389;28;20509;-72
2022/07/27 11:28:36;;;;;;;2.78;0.50;;;18.90;75.00;;;;;;5074486;28;20116;-72
2022/07/27 11:31:03;;;;;;;4.80;0.90;;;19.20;75.50;;;;;;5074119;28;20076;-72
2022/07/27 11:33:28;;;;;;;2.55;0.60;;;19.20;73.10;;;;;;5073992;28;20044;-72
2022/07/27 11:35:56;;;;;;;2.17;0.65;;;19.60;74.40;;;;;;5074280;28;20039;-72
2022/07/27 11:38:22;;;;;;;3.88;0.63;;;19.50;72.50;;;;;;5074152;28;20511;-72
2022/07/27 11:40:50;;;;;;;2.35;0.57;;;19.50;74.80;;;;;;5074174;28;20448;-72
2022/07/27 11:43:36;;;;;;;2.10;0.50;;;19.40;71.70;;;;;;5074403;28;20040;-72
2022/07/27 11:46:16;;;;;;;3.08;0.80;;;19.20;72.10;;;;;;5073052;28;20044;-72
2022/07/27 11:48:46;;;;;;;2.05;1.10;;;19.00;72.70;;;;;;5096848;22;20056;-67
2022/07/27 11:51:15;;;;;;;3.47;0.60;;;19.00;75.50;;;;;;5071625;28;20456;-68
2022/07/27 11:53:41;;;;;;;3.35;0.77;;;19.10;76.10;;;;;;5072753;28;20036;-67
2022/07/27 11:56:07;;;;;;;2.10;0.52;;;19.10;76.10;;;;;;5074030;28;20382;-67
2022/07/27 11:58:33;;;;;;;4.60;0.73;;;19.10;75.50;;;;;;5072281;28;20517;-68
2022/07/27 12:00:59;;;;;;;3.30;0.80;;;19.10;76.60;;;;;;5071539;28;20044;-67
2022/07/27 12:03:28;;;;;;;3.95;0.75;;;19.20;77.10;;;;;;5073824;28;20555;-67
2022/07/27 12:05:58;;;;;;;2.13;0.90;;;19.10;77.80;;;;;;5072655;28;20045;-68
2022/07/27 12:08:25;;;;;;;5.22;1.27;;;19.10;77.00;;;;;;5072619;28;20064;-67
2022/07/27 12:11:00;;;;;;;2.53;0.80;;;19.10;75.40;;;;;;5073406;28;20127;-67
2022/07/27 12:13:33;;;;;;;2.22;0.63;;;19.20;73.80;;;;;;5073637;28;20079;-68
2022/07/27 12:15:59;;;;;;;4.63;1.05;;;19.50;76.50;;;;;;5072459;28;20033;-68
2022/07/27 12:18:24;;;;;;;4.30;1.38;;;19.70;77.40;;;;;;5072097;28;20039;-68
2022/07/27 12:20:50;;;;;;;4.53;0.88;;;19.50;77.60;;;;;;5073061;28;20460;-68
2022/07/27 12:23:17;;;;;;;4.05;0.90;;;19.10;77.80;;;;;;5072363;28;20099;-68
2022/07/27 12:25:43;;;;;;;10.82;1.35;;;18.90;76.10;;;;;;5072035;28;20146;-68
2022/07/27 12:28:16;;;;;;;9.48;0.95;;;18.90;76.30;;;;;;5071855;28;20044;-67
2022/07/27 12:31:01;;;;;;;4.13;1.42;;;18.90;75.60;;;;;;5071601;28;20048;-68
2022/07/27 12:33:34;;;;;;;6.38;0.90;;;19.00;76.90;;;;;;5071949;28;20090;-67
2022/07/27 12:36:00;;;;;;;;;;;19.20;77.10;;;;;;5073740;28;20033;-67
2022/07/27 12:38:37;;;;;;;4.82;0.95;;;19.20;76.50;;;;;;5073201;28;19939;-67
2022/07/27 12:41:03;;;;;;;5.13;1.10;;;19.30;77.30;;;;;;5072580;28;20105;-68
2022/07/27 12:43:28;;;;;;;5.65;1.08;;;19.30;79.50;;;;;;5071435;28;20048;-67
2022/07/27 12:45:54;;;;;;;8.35;1.27;;;19.40;80.60;;;;;;5072349;28;20045;-68
2022/07/27 12:48:36;;;;;;;4.85;1.02;;;19.30;80.90;;;;;;5072621;28;20486;-67
2022/07/27 12:51:04;;;;;;;8.38;1.08;;;19.30;79.60;;;;;;5071272;28;20051;-68
2022/07/27 12:53:31;;;;;;;2.33;0.85;;;19.40;80.90;;;;;;5072723;28;20033;-67